Lake Worth, FL

1:50 PM EDT on April 28, 2017 (GMT -0400)
Southeast Lake Osborne | | Change Station

Elev 16 ft 26.58 °N, 80.08 °W | Updated 1 second ago

Partly Cloudy
Partly Cloudy
86.0 °F
Feels Like 94 °F
N
5.0
Wind Variable Wind from SSW
Gusts 6.3 mph

Today
High -- | Low -- °F
--% Chance of Precip.
Yesterday
High -- | Low -- °F
Precip. -- in
Pressure 30.11 in
Visibility 10.0 miles
Clouds Scattered Clouds 2400 ft
Heat Index 94 °F
Dew Point 74 °F
Humidity 68%
Rainfall 0.00 in
Snow Depth Not available.
6:44 AM 7:51 PM
Waxing Crescent, 7% visible
SPECI KPBI 281724Z 14014KT 10SM SCT024 29/21 A3011 RMK AO2 T02890211
Pressure 30.11 in
Visibility 10.0 miles
Clouds Scattered Clouds 2400 ft
Heat Index 94 °F
Dew Point 74 °F
Humidity 68%
Rainfall 0.00 in
Snow Depth Not available.
6:44 AM 7:51 PM
Waxing Crescent, 7% visible
SPECI KPBI 281724Z 14014KT 10SM SCT024 29/21 A3011 RMK AO2 T02890211

Get Severe Weather Alerts

Thanks for signing up!

Be on the lookout for a verification email in your inbox.

You'll start receiving the daily forecast at 8 AM.

×

10-Day Weather Forecast

Almanac

Astronomy

Apr. 28, 2017 Rise Set
Actual Time
Civil Twilight
Nautical Twilight
Astronomical Twilight
Moon
Length of Visible Light
Length of Day
Tomorrow will be .
, % of the Moon is Illuminated

Today's Extremes

State Highs State Lows

Community

WunderPhotos

WunderBlog® & News

Nearby

Air Quality

  Air Quality AQ Index Pollutant
Not available.

Snow Depth

Station Depth Elevation

Earthquake Activity

City Distance Mag. Time & Date
Minimum magnitude displayed is 2.5.

Coastal Water Temperatures

Place Temperature

Stations

Nearby Weather Stations

Station Location Temp. Windchill Dew Point Humidity Wind Precip. Elev Updated Type
                   

Watches & Warnings

There are currently no watches in effect.